sensor_id;sensor_type;location;lat;lon;timestamp;P1;durP1;ratioP1;P2;durP2;ratioP2
75851;SDS011;64500;52.632;20.656;2023-07-13T00:06:56;49.90;;;24.20;;
75851;SDS011;64500;52.632;20.656;2023-07-13T00:09:47;39.80;;;21.20;;
75851;SDS011;64500;52.632;20.656;2023-07-13T00:16:20;48.10;;;23.00;;
75851;SDS011;64500;52.632;20.656;2023-07-13T00:20:11;39.30;;;21.90;;
75851;SDS011;64500;52.632;20.656;2023-07-13T00:29:02;32.90;;;20.30;;
75851;SDS011;64500;52.632;20.656;2023-07-13T00:48:05;40.90;;;22.50;;
75851;SDS011;64500;52.632;20.656;2023-07-13T00:50:46;48.20;;;23.00;;
75851;SDS011;64500;52.632;20.656;2023-07-13T01:00:29;39.70;;;20.40;;
75851;SDS011;64500;52.632;20.656;2023-07-13T01:03:36;35.80;;;19.00;;
75851;SDS011;64500;52.632;20.656;2023-07-13T01:06:15;41.30;;;19.90;;
75851;SDS011;64500;52.632;20.656;2023-07-13T01:08:42;36.00;;;19.80;;
75851;SDS011;64500;52.632;20.656;2023-07-13T01:11:11;46.60;;;23.50;;
75851;SDS011;64500;52.632;20.656;2023-07-13T01:16:15;41.00;;;22.40;;
75851;SDS011;64500;52.632;20.656;2023-07-13T01:18:48;35.60;;;19.60;;
75851;SDS011;64500;52.632;20.656;2023-07-13T01:21:14;43.90;;;22.90;;
75851;SDS011;64500;52.632;20.656;2023-07-13T01:24:13;43.30;;;23.40;;
75851;SDS011;64500;52.632;20.656;2023-07-13T01:30:40;40.90;;;21.40;;
75851;SDS011;64500;52.632;20.656;2023-07-13T01:33:32;48.40;;;24.40;;
75851;SDS011;64500;52.632;20.656;2023-07-13T01:36:30;48.00;;;24.60;;
75851;SDS011;64500;52.632;20.656;2023-07-13T01:38:57;40.00;;;23.30;;
75851;SDS011;64500;52.632;20.656;2023-07-13T01:42:13;38.70;;;21.70;;
75851;SDS011;64500;52.632;20.656;2023-07-13T01:44:40;47.10;;;23.60;;
75851;SDS011;64500;52.632;20.656;2023-07-13T01:47:17;57.80;;;27.30;;
75851;SDS011;64500;52.632;20.656;2023-07-13T01:49:57;62.10;;;28.60;;
75851;SDS011;64500;52.632;20.656;2023-07-13T01:52:27;62.50;;;28.60;;
75851;SDS011;64500;52.632;20.656;2023-07-13T01:55:08;62.90;;;28.70;;
75851;SDS011;64500;52.632;20.656;2023-07-13T01:58:15;53.00;;;25.40;;
75851;SDS011;64500;52.632;20.656;2023-07-13T02:01:11;54.00;;;24.60;;
75851;SDS011;64500;52.632;20.656;2023-07-13T02:04:12;45.80;;;23.70;;
75851;SDS011;64500;52.632;20.656;2023-07-13T02:07:03;53.10;;;26.00;;
75851;SDS011;64500;52.632;20.656;2023-07-13T02:10:02;63.70;;;27.10;;
75851;SDS011;64500;52.632;20.656;2023-07-13T02:16:17;50.70;;;25.60;;
75851;SDS011;64500;52.632;20.656;2023-07-13T02:22:42;52.50;;;25.90;;
75851;SDS011;64500;52.632;20.656;2023-07-13T02:25:48;54.50;;;24.70;;
75851;SDS011;64500;52.632;20.656;2023-07-13T02:28:33;47.00;;;22.90;;
75851;SDS011;64500;52.632;20.656;2023-07-13T02:31:19;49.40;;;22.60;;
75851;SDS011;64500;52.632;20.656;2023-07-13T02:37:38;42.50;;;21.60;;
75851;SDS011;64500;52.632;20.656;2023-07-13T02:40:41;34.90;;;20.00;;
75851;SDS011;64500;52.632;20.656;2023-07-13T02:44:16;34.00;;;20.10;;
75851;SDS011;64500;52.632;20.656;2023-07-13T02:47:16;40.80;;;20.60;;
75851;SDS011;64500;52.632;20.656;2023-07-13T02:53:42;44.00;;;20.50;;
75851;SDS011;64500;52.632;20.656;2023-07-13T03:00:13;38.00;;;21.40;;
75851;SDS011;64500;52.632;20.656;2023-07-13T03:15:48;51.50;;;24.90;;
75851;SDS011;64500;52.632;20.656;2023-07-13T03:25:09;71.80;;;30.20;;
75851;SDS011;64500;52.632;20.656;2023-07-13T03:34:42;98.40;;;34.80;;
75851;SDS011;64500;52.632;20.656;2023-07-13T03:40:49;127.20;;;38.20;;
75851;SDS011;64500;52.632;20.656;2023-07-13T03:43:40;142.30;;;36.80;;
75851;SDS011;64500;52.632;20.656;2023-07-13T03:49:42;98.40;;;34.40;;
75851;SDS011;64500;52.632;20.656;2023-07-13T03:52:26;103.70;;;34.10;;
75851;SDS011;64500;52.632;20.656;2023-07-13T03:55:01;150.90;;;39.00;;
75851;SDS011;64500;52.632;20.656;2023-07-13T03:57:35;112.00;;;36.80;;
75851;SDS011;64500;52.632;20.656;2023-07-13T04:00:08;119.80;;;38.30;;
75851;SDS011;64500;52.632;20.656;2023-07-13T04:03:10;83.40;;;34.40;;
75851;SDS011;64500;52.632;20.656;2023-07-13T04:15:46;145.00;;;34.20;;
75851;SDS011;64500;52.632;20.656;2023-07-13T04:20:56;107.70;;;32.40;;
75851;SDS011;64500;52.632;20.656;2023-07-13T04:23:43;102.70;;;29.20;;
75851;SDS011;64500;52.632;20.656;2023-07-13T04:26:13;116.30;;;29.60;;
75851;SDS011;64500;52.632;20.656;2023-07-13T04:28:46;61.20;;;28.40;;
75851;SDS011;64500;52.632;20.656;2023-07-13T04:31:14;62.60;;;27.90;;
75851;SDS011;64500;52.632;20.656;2023-07-13T04:33:45;61.30;;;27.80;;
75851;SDS011;64500;52.632;20.656;2023-07-13T04:36:16;46.30;;;27.10;;
75851;SDS011;64500;52.632;20.656;2023-07-13T04:38:46;52.30;;;28.20;;
75851;SDS011;64500;52.632;20.656;2023-07-13T04:41:13;50.60;;;28.50;;
75851;SDS011;64500;52.632;20.656;2023-07-13T04:43:50;35.30;;;26.10;;
75851;SDS011;64500;52.632;20.656;2023-07-13T04:46:17;36.70;;;26.70;;
75851;SDS011;64500;52.632;20.656;2023-07-13T04:48:48;33.10;;;25.70;;
75851;SDS011;64500;52.632;20.656;2023-07-13T04:51:17;30.90;;;25.10;;
75851;SDS011;64500;52.632;20.656;2023-07-13T04:57:35;31.60;;;26.10;;
75851;SDS011;64500;52.632;20.656;2023-07-13T05:00:57;33.10;;;25.70;;
75851;SDS011;64500;52.632;20.656;2023-07-13T05:07:03;29.50;;;24.30;;
75851;SDS011;64500;52.632;20.656;2023-07-13T05:13:48;31.40;;;24.80;;
75851;SDS011;64500;52.632;20.656;2023-07-13T05:29:26;27.10;;;24.20;;
75851;SDS011;64500;52.632;20.656;2023-07-13T05:32:23;28.50;;;25.50;;
75851;SDS011;64500;52.632;20.656;2023-07-13T05:45:32;24.20;;;21.60;;
75851;SDS011;64500;52.632;20.656;2023-07-13T05:51:47;24.20;;;21.60;;
75851;SDS011;64500;52.632;20.656;2023-07-13T05:58:07;20.60;;;18.00;;
75851;SDS011;64500;52.632;20.656;2023-07-13T06:01:05;23.20;;;18.00;;
75851;SDS011;64500;52.632;20.656;2023-07-13T06:04:13;18.70;;;15.80;;
75851;SDS011;64500;52.632;20.656;2023-07-13T06:09:38;19.50;;;17.30;;
75851;SDS011;64500;52.632;20.656;2023-07-13T06:12:47;20.80;;;17.00;;
75851;SDS011;64500;52.632;20.656;2023-07-13T06:16:02;18.00;;;16.10;;
75851;SDS011;64500;52.632;20.656;2023-07-13T06:19:00;19.40;;;16.00;;
75851;SDS011;64500;52.632;20.656;2023-07-13T06:21:52;19.10;;;15.80;;
75851;SDS011;64500;52.632;20.656;2023-07-13T06:33:39;16.00;;;13.10;;
75851;SDS011;64500;52.632;20.656;2023-07-13T06:36:41;17.00;;;12.80;;
75851;SDS011;64500;52.632;20.656;2023-07-13T06:39:48;19.40;;;11.10;;
75851;SDS011;64500;52.632;20.656;2023-07-13T06:45:54;17.00;;;11.80;;
75851;SDS011;64500;52.632;20.656;2023-07-13T06:49:01;15.00;;;11.40;;
75851;SDS011;64500;52.632;20.656;2023-07-13T06:51:49;14.00;;;10.90;;
75851;SDS011;64500;52.632;20.656;2023-07-13T06:54:40;15.00;;;11.80;;
75851;SDS011;64500;52.632;20.656;2023-07-13T06:57:26;13.90;;;11.50;;
75851;SDS011;64500;52.632;20.656;2023-07-13T07:03:25;12.60;;;10.00;;
75851;SDS011;64500;52.632;20.656;2023-07-13T07:06:15;12.70;;;9.00;;
75851;SDS011;64500;52.632;20.656;2023-07-13T07:09:07;12.10;;;8.50;;
75851;SDS011;64500;52.632;20.656;2023-07-13T07:11:48;15.30;;;8.10;;
75851;SDS011;64500;52.632;20.656;2023-07-13T07:14:29;11.50;;;8.60;;
75851;SDS011;64500;52.632;20.656;2023-07-13T07:16:57;15.00;;;8.40;;
75851;SDS011;64500;52.632;20.656;2023-07-13T07:19:50;16.30;;;13.70;;
75851;SDS011;64500;52.632;20.656;2023-07-13T07:22:24;20.90;;;14.10;;
75851;SDS011;64500;52.632;20.656;2023-07-13T07:31:27;20.40;;;16.40;;
75851;SDS011;64500;52.632;20.656;2023-07-13T07:34:53;19.90;;;15.60;;
75851;SDS011;64500;52.632;20.656;2023-07-13T07:37:29;16.50;;;13.80;;
75851;SDS011;64500;52.632;20.656;2023-07-13T07:40:14;11.70;;;9.10;;
75851;SDS011;64500;52.632;20.656;2023-07-13T07:42:58;29.90;;;6.70;;
75851;SDS011;64500;52.632;20.656;2023-07-13T07:45:28;9.30;;;5.10;;
75851;SDS011;64500;52.632;20.656;2023-07-13T07:48:16;31.80;;;7.00;;
75851;SDS011;64500;52.632;20.656;2023-07-13T07:50:49;19.40;;;5.50;;
75851;SDS011;64500;52.632;20.656;2023-07-13T09:23:43;9.20;;;3.60;;
75851;SDS011;64500;52.632;20.656;2023-07-13T09:26:20;8.10;;;3.40;;
75851;SDS011;64500;52.632;20.656;2023-07-13T09:28:48;6.10;;;2.90;;
75851;SDS011;64500;52.632;20.656;2023-07-13T09:31:19;7.40;;;3.30;;
75851;SDS011;64500;52.632;20.656;2023-07-13T09:33:47;9.10;;;4.60;;
75851;SDS011;64500;52.632;20.656;2023-07-13T09:36:17;10.30;;;4.00;;
75851;SDS011;64500;52.632;20.656;2023-07-13T09:38:44;6.40;;;3.30;;
75851;SDS011;64500;52.632;20.656;2023-07-13T09:41:19;7.00;;;3.40;;
75851;SDS011;64500;52.632;20.656;2023-07-13T09:46:27;7.50;;;3.30;;
75851;SDS011;64500;52.632;20.656;2023-07-13T09:48:53;6.00;;;3.10;;
75851;SDS011;64500;52.632;20.656;2023-07-13T09:51:22;6.20;;;3.20;;
75851;SDS011;64500;52.632;20.656;2023-07-13T09:53:48;7.00;;;3.40;;
75851;SDS011;64500;52.632;20.656;2023-07-13T09:56:22;7.50;;;3.70;;
75851;SDS011;64500;52.632;20.656;2023-07-13T09:58:49;7.50;;;3.90;;
75851;SDS011;64500;52.632;20.656;2023-07-13T10:01:15;7.10;;;3.30;;
75851;SDS011;64500;52.632;20.656;2023-07-13T10:03:52;7.10;;;3.80;;
75851;SDS011;64500;52.632;20.656;2023-07-13T10:06:20;8.80;;;3.80;;
75851;SDS011;64500;52.632;20.656;2023-07-13T10:08:48;7.90;;;4.10;;
75851;SDS011;64500;52.632;20.656;2023-07-13T10:11:17;7.30;;;4.40;;
75851;SDS011;64500;52.632;20.656;2023-07-13T10:13:45;8.70;;;4.10;;
75851;SDS011;64500;52.632;20.656;2023-07-13T10:16:11;7.20;;;4.10;;
75851;SDS011;64500;52.632;20.656;2023-07-13T10:18:40;7.00;;;3.50;;
75851;SDS011;64500;52.632;20.656;2023-07-13T10:21:10;6.90;;;3.50;;
75851;SDS011;64500;52.632;20.656;2023-07-13T10:23:37;6.30;;;3.20;;
75851;SDS011;64500;52.632;20.656;2023-07-13T10:26:03;7.50;;;3.90;;
75851;SDS011;64500;52.632;20.656;2023-07-13T10:28:35;7.00;;;3.50;;
75851;SDS011;64500;52.632;20.656;2023-07-13T10:31:02;8.30;;;3.80;;
75851;SDS011;64500;52.632;20.656;2023-07-13T10:33:31;8.50;;;3.80;;
75851;SDS011;64500;52.632;20.656;2023-07-13T10:36:40;6.50;;;3.60;;
75851;SDS011;64500;52.632;20.656;2023-07-13T10:38:46;8.70;;;3.80;;
75851;SDS011;64500;52.632;20.656;2023-07-13T10:41:18;7.80;;;3.90;;
75851;SDS011;64500;52.632;20.656;2023-07-13T10:43:46;8.50;;;3.80;;
75851;SDS011;64500;52.632;20.656;2023-07-13T10:46:14;7.00;;;3.80;;
75851;SDS011;64500;52.632;20.656;2023-07-13T10:48:42;9.20;;;3.70;;
75851;SDS011;64500;52.632;20.656;2023-07-13T10:51:10;7.30;;;3.60;;
75851;SDS011;64500;52.632;20.656;2023-07-13T10:53:37;6.80;;;3.50;;
75851;SDS011;64500;52.632;20.656;2023-07-13T10:58:36;7.50;;;3.90;;
75851;SDS011;64500;52.632;20.656;2023-07-13T11:03:29;7.20;;;3.70;;
75851;SDS011;64500;52.632;20.656;2023-07-13T11:08:36;6.80;;;3.50;;
75851;SDS011;64500;52.632;20.656;2023-07-13T11:11:03;7.40;;;3.10;;
75851;SDS011;64500;52.632;20.656;2023-07-13T11:16:21;6.50;;;3.50;;
75851;SDS011;64500;52.632;20.656;2023-07-13T11:21:27;9.60;;;3.80;;
75851;SDS011;64500;52.632;20.656;2023-07-13T11:24:03;7.10;;;3.50;;
75851;SDS011;64500;52.632;20.656;2023-07-13T11:26:40;8.30;;;3.80;;
75851;SDS011;64500;52.632;20.656;2023-07-13T11:31:52;7.50;;;3.90;;
75851;SDS011;64500;52.632;20.656;2023-07-13T11:36:51;7.30;;;3.70;;
75851;SDS011;64500;52.632;20.656;2023-07-13T11:39:19;7.10;;;3.80;;
75851;SDS011;64500;52.632;20.656;2023-07-13T11:41:53;7.20;;;3.70;;
75851;SDS011;64500;52.632;20.656;2023-07-13T11:44:22;7.30;;;3.80;;
75851;SDS011;64500;52.632;20.656;2023-07-13T11:46:50;6.40;;;3.30;;
75851;SDS011;64500;52.632;20.656;2023-07-13T11:49:19;7.40;;;3.50;;
75851;SDS011;64500;52.632;20.656;2023-07-13T11:51:48;6.00;;;3.40;;
75851;SDS011;64500;52.632;20.656;2023-07-13T11:54:22;6.20;;;3.20;;
75851;SDS011;64500;52.632;20.656;2023-07-13T11:56:49;6.30;;;3.10;;
75851;SDS011;64500;52.632;20.656;2023-07-13T11:59:16;6.90;;;2.90;;
75851;SDS011;64500;52.632;20.656;2023-07-13T12:01:45;8.00;;;3.50;;
75851;SDS011;64500;52.632;20.656;2023-07-13T12:04:19;6.00;;;2.80;;
75851;SDS011;64500;52.632;20.656;2023-07-13T12:06:47;6.70;;;2.90;;
75851;SDS011;64500;52.632;20.656;2023-07-13T12:09:20;6.50;;;2.90;;
75851;SDS011;64500;52.632;20.656;2023-07-13T12:11:50;8.40;;;3.00;;
75851;SDS011;64500;52.632;20.656;2023-07-13T12:14:18;8.90;;;3.40;;
75851;SDS011;64500;52.632;20.656;2023-07-13T12:16:46;6.00;;;3.00;;
75851;SDS011;64500;52.632;20.656;2023-07-13T12:19:17;8.00;;;3.00;;
75851;SDS011;64500;52.632;20.656;2023-07-13T12:21:43;9.70;;;3.20;;
75851;SDS011;64500;52.632;20.656;2023-07-13T12:24:16;6.90;;;2.90;;
75851;SDS011;64500;52.632;20.656;2023-07-13T12:26:43;9.80;;;3.30;;
75851;SDS011;64500;52.632;20.656;2023-07-13T12:29:14;6.80;;;3.40;;
75851;SDS011;64500;52.632;20.656;2023-07-13T12:31:42;6.30;;;3.10;;
75851;SDS011;64500;52.632;20.656;2023-07-13T12:34:14;6.90;;;3.10;;
75851;SDS011;64500;52.632;20.656;2023-07-13T12:36:45;9.40;;;3.20;;
75851;SDS011;64500;52.632;20.656;2023-07-13T12:39:13;7.50;;;3.10;;
75851;SDS011;64500;52.632;20.656;2023-07-13T12:41:39;6.80;;;3.20;;
75851;SDS011;64500;52.632;20.656;2023-07-13T12:44:12;7.40;;;3.10;;
75851;SDS011;64500;52.632;20.656;2023-07-13T12:46:39;7.80;;;3.50;;
75851;SDS011;64500;52.632;20.656;2023-07-13T12:49:06;7.40;;;3.40;;
75851;SDS011;64500;52.632;20.656;2023-07-13T12:51:33;8.10;;;3.40;;
75851;SDS011;64500;52.632;20.656;2023-07-13T12:54:07;6.70;;;3.10;;
75851;SDS011;64500;52.632;20.656;2023-07-13T12:56:37;8.80;;;3.40;;
75851;SDS011;64500;52.632;20.656;2023-07-13T12:59:04;7.10;;;3.30;;
75851;SDS011;64500;52.632;20.656;2023-07-13T13:01:32;7.40;;;3.50;;
75851;SDS011;64500;52.632;20.656;2023-07-13T13:04:00;10.30;;;3.40;;
75851;SDS011;64500;52.632;20.656;2023-07-13T13:06:28;6.90;;;3.10;;
75851;SDS011;64500;52.632;20.656;2023-07-13T13:08:55;9.80;;;3.20;;
75851;SDS011;64500;52.632;20.656;2023-07-13T13:11:30;8.50;;;3.50;;
75851;SDS011;64500;52.632;20.656;2023-07-13T13:16:48;8.80;;;3.50;;
75851;SDS011;64500;52.632;20.656;2023-07-13T13:28:15;7.60;;;3.80;;
75851;SDS011;64500;52.632;20.656;2023-07-13T13:30:48;8.60;;;3.50;;
75851;SDS011;64500;52.632;20.656;2023-07-13T13:33:18;8.60;;;3.70;;
75851;SDS011;64500;52.632;20.656;2023-07-13T13:38:57;10.00;;;3.80;;
75851;SDS011;64500;52.632;20.656;2023-07-13T13:42:08;8.40;;;3.70;;
75851;SDS011;64500;52.632;20.656;2023-07-13T13:44:21;8.50;;;3.70;;
75851;SDS011;64500;52.632;20.656;2023-07-13T13:47:17;8.20;;;3.80;;
75851;SDS011;64500;52.632;20.656;2023-07-13T13:49:40;6.70;;;3.20;;
75851;SDS011;64500;52.632;20.656;2023-07-13T13:52:29;8.30;;;3.70;;
75851;SDS011;64500;52.632;20.656;2023-07-13T13:54:56;9.30;;;3.50;;
75851;SDS011;64500;52.632;20.656;2023-07-13T14:00:23;9.00;;;3.80;;
75851;SDS011;64500;52.632;20.656;2023-07-13T14:02:50;7.80;;;3.40;;
75851;SDS011;64500;52.632;20.656;2023-07-13T14:05:32;8.30;;;3.80;;
75851;SDS011;64500;52.632;20.656;2023-07-13T14:07:59;7.60;;;3.60;;
75851;SDS011;64500;52.632;20.656;2023-07-13T14:10:31;7.80;;;3.50;;
75851;SDS011;64500;52.632;20.656;2023-07-13T14:12:57;10.10;;;4.10;;
75851;SDS011;64500;52.632;20.656;2023-07-13T14:15:28;8.80;;;3.60;;
75851;SDS011;64500;52.632;20.656;2023-07-13T14:18:04;8.90;;;3.70;;
75851;SDS011;64500;52.632;20.656;2023-07-13T14:23:28;7.40;;;3.30;;
75851;SDS011;64500;52.632;20.656;2023-07-13T14:26:06;7.50;;;3.90;;
75851;SDS011;64500;52.632;20.656;2023-07-13T14:29:04;8.10;;;3.80;;
75851;SDS011;64500;52.632;20.656;2023-07-13T14:31:50;8.80;;;3.60;;
75851;SDS011;64500;52.632;20.656;2023-07-13T14:34:37;11.60;;;3.70;;
75851;SDS011;64500;52.632;20.656;2023-07-13T14:45:59;8.20;;;3.70;;
75851;SDS011;64500;52.632;20.656;2023-07-13T14:48:38;7.90;;;4.10;;
75851;SDS011;64500;52.632;20.656;2023-07-13T14:54:40;7.40;;;3.80;;
75851;SDS011;64500;52.632;20.656;2023-07-13T14:57:02;8.60;;;3.80;;
75851;SDS011;64500;52.632;20.656;2023-07-13T14:59:28;7.90;;;3.90;;
75851;SDS011;64500;52.632;20.656;2023-07-13T15:04:52;7.20;;;3.70;;
75851;SDS011;64500;52.632;20.656;2023-07-13T15:10:46;7.00;;;3.70;;
75851;SDS011;64500;52.632;20.656;2023-07-13T15:13:32;8.60;;;3.70;;
75851;SDS011;64500;52.632;20.656;2023-07-13T15:16:28;9.20;;;4.60;;
75851;SDS011;64500;52.632;20.656;2023-07-13T15:22:22;7.20;;;4.10;;
75851;SDS011;64500;52.632;20.656;2023-07-13T15:24:49;7.10;;;3.90;;
75851;SDS011;64500;52.632;20.656;2023-07-13T15:27:37;8.30;;;4.30;;
75851;SDS011;64500;52.632;20.656;2023-07-13T15:42:16;6.80;;;4.10;;
75851;SDS011;64500;52.632;20.656;2023-07-13T15:44:45;8.40;;;4.10;;
75851;SDS011;64500;52.632;20.656;2023-07-13T15:47:32;8.40;;;4.10;;
75851;SDS011;64500;52.632;20.656;2023-07-13T15:54:12;8.50;;;4.30;;
75851;SDS011;64500;52.632;20.656;2023-07-13T15:56:32;8.20;;;4.60;;
75851;SDS011;64500;52.632;20.656;2023-07-13T15:59:20;9.30;;;4.10;;
75851;SDS011;64500;52.632;20.656;2023-07-13T16:02:32;7.40;;;3.90;;
75851;SDS011;64500;52.632;20.656;2023-07-13T16:04:44;8.20;;;4.30;;
75851;SDS011;64500;52.632;20.656;2023-07-13T16:07:20;8.10;;;4.30;;
75851;SDS011;64500;52.632;20.656;2023-07-13T16:13:35;10.70;;;4.30;;
75851;SDS011;64500;52.632;20.656;2023-07-13T16:22:05;9.90;;;3.90;;
75851;SDS011;64500;52.632;20.656;2023-07-13T16:24:52;8.90;;;4.10;;
75851;SDS011;64500;52.632;20.656;2023-07-13T16:27:23;9.90;;;4.20;;
75851;SDS011;64500;52.632;20.656;2023-07-13T16:30:22;10.30;;;4.10;;
75851;SDS011;64500;52.632;20.656;2023-07-13T16:33:13;10.50;;;4.00;;
75851;SDS011;64500;52.632;20.656;2023-07-13T16:36:02;9.80;;;4.40;;
75851;SDS011;64500;52.632;20.656;2023-07-13T16:41:40;9.50;;;4.40;;
75851;SDS011;64500;52.632;20.656;2023-07-13T16:47:33;10.00;;;4.40;;
75851;SDS011;64500;52.632;20.656;2023-07-13T16:50:21;10.20;;;4.50;;
75851;SDS011;64500;52.632;20.656;2023-07-13T16:52:53;8.50;;;4.40;;
75851;SDS011;64500;52.632;20.656;2023-07-13T16:55:39;8.10;;;4.70;;
75851;SDS011;64500;52.632;20.656;2023-07-13T16:58:36;7.90;;;4.60;;
75851;SDS011;64500;52.632;20.656;2023-07-13T17:01:22;9.80;;;4.80;;
75851;SDS011;64500;52.632;20.656;2023-07-13T17:04:10;9.60;;;5.00;;
75851;SDS011;64500;52.632;20.656;2023-07-13T17:09:49;9.00;;;4.40;;
75851;SDS011;64500;52.632;20.656;2023-07-13T17:12:29;9.60;;;4.60;;
75851;SDS011;64500;52.632;20.656;2023-07-13T17:21:12;8.80;;;4.40;;
75851;SDS011;64500;52.632;20.656;2023-07-13T17:24:33;8.20;;;4.00;;
75851;SDS011;64500;52.632;20.656;2023-07-13T17:27:08;9.20;;;4.40;;
75851;SDS011;64500;52.632;20.656;2023-07-13T17:35:55;9.30;;;4.90;;
75851;SDS011;64500;52.632;20.656;2023-07-13T17:39:26;10.90;;;4.40;;
75851;SDS011;64500;52.632;20.656;2023-07-13T17:41:57;9.20;;;4.50;;
75851;SDS011;64500;52.632;20.656;2023-07-13T17:44:33;11.20;;;5.30;;
75851;SDS011;64500;52.632;20.656;2023-07-13T17:47:32;9.00;;;4.90;;
75851;SDS011;64500;52.632;20.656;2023-07-13T17:50:07;12.70;;;5.80;;
75851;SDS011;64500;52.632;20.656;2023-07-13T17:53:13;10.70;;;6.40;;
75851;SDS011;64500;52.632;20.656;2023-07-13T17:55:55;10.90;;;5.90;;
75851;SDS011;64500;52.632;20.656;2023-07-13T17:58:34;9.80;;;6.00;;
75851;SDS011;64500;52.632;20.656;2023-07-13T18:03:49;13.70;;;6.70;;
75851;SDS011;64500;52.632;20.656;2023-07-13T18:06:28;11.50;;;6.10;;
75851;SDS011;64500;52.632;20.656;2023-07-13T18:09:02;12.00;;;6.90;;
75851;SDS011;64500;52.632;20.656;2023-07-13T18:11:53;10.10;;;6.60;;
75851;SDS011;64500;52.632;20.656;2023-07-13T18:14:24;9.80;;;6.00;;
75851;SDS011;64500;52.632;20.656;2023-07-13T18:16:57;11.00;;;6.70;;
75851;SDS011;64500;52.632;20.656;2023-07-13T18:22:15;13.10;;;6.70;;
75851;SDS011;64500;52.632;20.656;2023-07-13T18:24:43;11.50;;;6.60;;
75851;SDS011;64500;52.632;20.656;2023-07-13T18:27:10;11.10;;;6.90;;
75851;SDS011;64500;52.632;20.656;2023-07-13T18:29:37;11.30;;;6.50;;
75851;SDS011;64500;52.632;20.656;2023-07-13T18:32:12;11.20;;;6.90;;
75851;SDS011;64500;52.632;20.656;2023-07-13T18:35:31;10.30;;;6.80;;
75851;SDS011;64500;52.632;20.656;2023-07-13T18:37:31;11.70;;;7.20;;
75851;SDS011;64500;52.632;20.656;2023-07-13T18:40:12;11.30;;;7.70;;
75851;SDS011;64500;52.632;20.656;2023-07-13T18:42:42;13.80;;;7.80;;
75851;SDS011;64500;52.632;20.656;2023-07-13T18:45:10;11.80;;;7.70;;
75851;SDS011;64500;52.632;20.656;2023-07-13T18:47:40;11.40;;;7.70;;
75851;SDS011;64500;52.632;20.656;2023-07-13T18:50:52;13.70;;;7.50;;
75851;SDS011;64500;52.632;20.656;2023-07-13T18:53:13;13.40;;;8.20;;
75851;SDS011;64500;52.632;20.656;2023-07-13T18:55:49;11.10;;;7.90;;
75851;SDS011;64500;52.632;20.656;2023-07-13T19:06:49;13.60;;;8.70;;
75851;SDS011;64500;52.632;20.656;2023-07-13T19:10:00;13.10;;;8.50;;
75851;SDS011;64500;52.632;20.656;2023-07-13T19:26:48;12.10;;;8.60;;
75851;SDS011;64500;52.632;20.656;2023-07-13T19:29:26;14.00;;;9.40;;
75851;SDS011;64500;52.632;20.656;2023-07-13T19:35:13;13.60;;;9.30;;
75851;SDS011;64500;52.632;20.656;2023-07-13T19:38:13;13.90;;;9.70;;
75851;SDS011;64500;52.632;20.656;2023-07-13T19:40:48;13.20;;;9.40;;
75851;SDS011;64500;52.632;20.656;2023-07-13T19:43:34;15.40;;;10.10;;
75851;SDS011;64500;52.632;20.656;2023-07-13T19:49:12;11.60;;;8.40;;
75851;SDS011;64500;52.632;20.656;2023-07-13T19:51:58;12.90;;;8.90;;
75851;SDS011;64500;52.632;20.656;2023-07-13T19:54:30;13.20;;;9.10;;
75851;SDS011;64500;52.632;20.656;2023-07-13T19:57:17;11.80;;;8.80;;
75851;SDS011;64500;52.632;20.656;2023-07-13T20:03:00;14.10;;;9.70;;
75851;SDS011;64500;52.632;20.656;2023-07-13T20:05:46;15.00;;;10.10;;
75851;SDS011;64500;52.632;20.656;2023-07-13T20:08:33;14.80;;;10.50;;
75851;SDS011;64500;52.632;20.656;2023-07-13T20:17:51;13.50;;;10.40;;
75851;SDS011;64500;52.632;20.656;2023-07-13T20:23:17;19.20;;;11.20;;
75851;SDS011;64500;52.632;20.656;2023-07-13T20:29:00;17.20;;;12.00;;
75851;SDS011;64500;52.632;20.656;2023-07-13T20:37:40;14.00;;;9.40;;
75851;SDS011;64500;52.632;20.656;2023-07-13T20:46:21;11.60;;;6.20;;
75851;SDS011;64500;52.632;20.656;2023-07-13T20:48:47;10.20;;;6.00;;
75851;SDS011;64500;52.632;20.656;2023-07-13T20:51:27;11.70;;;5.90;;
75851;SDS011;64500;52.632;20.656;2023-07-13T20:54:49;11.70;;;5.40;;
75851;SDS011;64500;52.632;20.656;2023-07-13T20:57:13;11.50;;;6.00;;
75851;SDS011;64500;52.632;20.656;2023-07-13T21:08:30;12.00;;;5.80;;
75851;SDS011;64500;52.632;20.656;2023-07-13T21:14:12;12.30;;;6.10;;
75851;SDS011;64500;52.632;20.656;2023-07-13T21:19:56;11.10;;;5.40;;
75851;SDS011;64500;52.632;20.656;2023-07-13T21:22:54;12.80;;;5.80;;
75851;SDS011;64500;52.632;20.656;2023-07-13T21:25:40;12.20;;;6.50;;
75851;SDS011;64500;52.632;20.656;2023-07-13T21:28:55;14.30;;;6.10;;
75851;SDS011;64500;52.632;20.656;2023-07-13T21:34:18;11.60;;;5.70;;
75851;SDS011;64500;52.632;20.656;2023-07-13T21:36:48;11.20;;;5.80;;
75851;SDS011;64500;52.632;20.656;2023-07-13T21:42:32;11.50;;;5.50;;
75851;SDS011;64500;52.632;20.656;2023-07-13T21:45:27;11.00;;;5.50;;
75851;SDS011;64500;52.632;20.656;2023-07-13T21:48:08;10.50;;;5.70;;
75851;SDS011;64500;52.632;20.656;2023-07-13T21:50:54;10.10;;;6.00;;
75851;SDS011;64500;52.632;20.656;2023-07-13T21:55:56;12.40;;;6.10;;
75851;SDS011;64500;52.632;20.656;2023-07-13T22:07:31;14.60;;;7.30;;
75851;SDS011;64500;52.632;20.656;2023-07-13T22:10:27;12.70;;;7.00;;
75851;SDS011;64500;52.632;20.656;2023-07-13T22:16:41;10.50;;;6.50;;
75851;SDS011;64500;52.632;20.656;2023-07-13T22:22:10;12.40;;;7.10;;
75851;SDS011;64500;52.632;20.656;2023-07-13T22:24:42;12.20;;;7.00;;
75851;SDS011;64500;52.632;20.656;2023-07-13T22:27:41;14.50;;;6.70;;
75851;SDS011;64500;52.632;20.656;2023-07-13T22:30:21;11.70;;;7.20;;
75851;SDS011;64500;52.632;20.656;2023-07-13T22:33:11;11.40;;;6.60;;
75851;SDS011;64500;52.632;20.656;2023-07-13T22:55:09;14.70;;;7.10;;
75851;SDS011;64500;52.632;20.656;2023-07-13T23:09:40;14.00;;;7.70;;
75851;SDS011;64500;52.632;20.656;2023-07-13T23:15:43;13.30;;;7.20;;
75851;SDS011;64500;52.632;20.656;2023-07-13T23:18:32;11.60;;;6.70;;
75851;SDS011;64500;52.632;20.656;2023-07-13T23:30:16;11.80;;;8.20;;
75851;SDS011;64500;52.632;20.656;2023-07-13T23:36:27;11.80;;;7.10;;
75851;SDS011;64500;52.632;20.656;2023-07-13T23:48:33;17.60;;;8.30;;
